createdAt,value
2023-04-30T00:00:00.276Z,92.97
2023-04-30T00:02:27.085Z,92.80
2023-04-30T00:04:53.788Z,92.71
2023-04-30T00:07:20.506Z,93.02
2023-04-30T00:09:47.140Z,92.65
2023-04-30T00:12:13.823Z,92.25
2023-04-30T00:14:40.517Z,93.07
2023-04-30T00:17:07.185Z,92.60
2023-04-30T00:19:33.852Z,92.77
2023-04-30T00:22:03.977Z,92.45
2023-04-30T00:24:30.536Z,92.43
2023-04-30T00:26:57.218Z,92.99
2023-04-30T00:29:23.873Z,92.98
2023-04-30T00:31:50.775Z,92.96
2023-04-30T00:34:17.403Z,92.87
2023-04-30T00:36:44.081Z,92.34
2023-04-30T00:39:10.694Z,93.48
2023-04-30T00:41:37.525Z,92.21
2023-04-30T00:44:04.540Z,91.99
2023-04-30T00:46:31.585Z,92.31
2023-04-30T00:49:00.184Z,92.25
2023-04-30T00:51:27.010Z,93.85
2023-04-30T00:53:54.250Z,95.48
2023-04-30T00:56:21.169Z,94.55
2023-04-30T00:58:49.923Z,94.05
2023-04-30T01:01:17.930Z,94.72
2023-04-30T01:03:45.009Z,93.99
2023-04-30T01:06:11.747Z,94.09
2023-04-30T01:08:38.399Z,94.51
2023-04-30T01:11:04.912Z,94.16
2023-04-30T01:13:49.770Z,93.90
2023-04-30T01:16:20.352Z,93.98
2023-04-30T01:18:55.148Z,94.93
2023-04-30T01:21:23.071Z,94.31
2023-04-30T01:24:08.538Z,94.26
2023-04-30T01:26:50.291Z,94.35
2023-04-30T01:29:19.453Z,94.23
2023-04-30T01:31:46.431Z,93.50
2023-04-30T01:34:13.103Z,93.53
2023-04-30T01:36:50.809Z,94.28
2023-04-30T01:39:29.432Z,94.62
2023-04-30T01:42:16.513Z,94.38
2023-04-30T01:45:03.846Z,94.58
2023-04-30T01:47:46.629Z,95.02
2023-04-30T01:50:26.336Z,95.01
2023-04-30T01:52:57.270Z,95.08
2023-04-30T01:55:26.549Z,94.77
2023-04-30T01:58:01.530Z,94.99
2023-04-30T02:00:30.691Z,95.00
2023-04-30T02:02:58.085Z,96.13
2023-04-30T02:05:25.181Z,95.95
2023-04-30T02:07:52.770Z,96.15
2023-04-30T02:10:22.728Z,95.53
2023-04-30T02:12:49.440Z,95.62
2023-04-30T02:15:16.386Z,95.30
2023-04-30T02:17:43.154Z,95.81
2023-04-30T02:20:10.258Z,94.78
2023-04-30T02:22:37.419Z,95.46
2023-04-30T02:25:04.478Z,95.16
2023-04-30T02:27:32.618Z,95.44
2023-04-30T02:30:00.242Z,95.43
2023-04-30T02:32:27.093Z,94.96
2023-04-30T02:34:53.798Z,94.75
2023-04-30T02:37:20.594Z,94.66
2023-04-30T02:39:48.068Z,95.31
2023-04-30T02:42:14.888Z,96.60
2023-04-30T02:44:41.845Z,96.13
2023-04-30T02:47:08.533Z,95.63
2023-04-30T02:49:35.152Z,95.66
2023-04-30T02:52:01.813Z,95.71
2023-04-30T02:54:28.477Z,95.38
2023-04-30T02:56:55.089Z,95.18
2023-04-30T02:59:21.664Z,95.27
2023-04-30T03:01:48.410Z,94.86
2023-04-30T03:04:14.984Z,95.53
2023-04-30T03:06:41.662Z,95.56
2023-04-30T03:09:08.473Z,95.21
2023-04-30T03:11:37.840Z,96.16
2023-04-30T03:14:05.022Z,96.77
2023-04-30T03:16:31.724Z,96.59
2023-04-30T03:18:58.607Z,97.16
2023-04-30T03:21:25.402Z,97.24
2023-04-30T03:23:51.991Z,96.73
2023-04-30T03:26:20.987Z,97.28
2023-04-30T03:28:47.733Z,96.98
2023-04-30T03:31:14.453Z,96.53
2023-04-30T03:33:41.175Z,96.60
2023-04-30T03:36:07.926Z,98.06
2023-04-30T03:38:34.604Z,97.09
2023-04-30T03:41:01.304Z,97.00
2023-04-30T03:43:27.940Z,96.52
2023-04-30T03:45:54.565Z,96.97
2023-04-30T03:48:21.450Z,96.68
2023-04-30T03:50:48.158Z,96.60
2023-04-30T03:53:14.899Z,96.63
2023-04-30T03:55:42.333Z,97.01
2023-04-30T03:58:09.069Z,96.30
2023-04-30T04:00:35.764Z,96.75
2023-04-30T04:03:02.670Z,96.79
2023-04-30T04:05:29.877Z,96.76
2023-04-30T04:07:56.951Z,97.03
2023-04-30T04:10:23.722Z,96.85
2023-04-30T04:12:51.096Z,95.97
2023-04-30T04:15:17.784Z,96.79
2023-04-30T04:17:44.447Z,96.73
2023-04-30T04:20:13.799Z,96.91
2023-04-30T04:22:40.704Z,97.34
2023-04-30T04:25:07.623Z,97.32
2023-04-30T04:27:34.523Z,97.13
2023-04-30T04:30:02.804Z,97.17
2023-04-30T04:32:30.644Z,97.41
2023-04-30T04:34:57.336Z,97.86
2023-04-30T04:37:24.427Z,97.61
2023-04-30T04:39:51.627Z,98.48
2023-04-30T04:42:19.472Z,98.37
2023-04-30T04:44:46.321Z,98.50
2023-04-30T04:47:13.052Z,98.60
2023-04-30T04:49:39.830Z,98.63
2023-04-30T04:52:06.758Z,98.73
2023-04-30T04:54:33.907Z,99.14
2023-04-30T04:57:00.625Z,100.00
2023-04-30T04:59:27.294Z,100.00
2023-04-30T05:01:54.012Z,100.00
2023-04-30T05:04:20.750Z,100.00
2023-04-30T05:06:47.808Z,100.00
2023-04-30T05:09:14.494Z,100.00
2023-04-30T05:11:41.793Z,100.00
2023-04-30T05:14:08.485Z,100.00
2023-04-30T05:16:35.224Z,100.00
2023-04-30T05:19:01.884Z,100.00
2023-04-30T05:21:29.892Z,100.00
2023-04-30T05:23:56.584Z,100.00
2023-04-30T05:26:24.514Z,100.00
2023-04-30T05:28:52.479Z,100.00
2023-04-30T05:31:20.963Z,100.00
2023-04-30T05:33:48.056Z,100.00
2023-04-30T05:36:14.817Z,100.00
2023-04-30T05:38:42.018Z,100.00
2023-04-30T05:41:11.968Z,100.00
2023-04-30T05:43:38.667Z,100.00
2023-04-30T05:46:05.592Z,100.00
2023-04-30T05:48:32.286Z,100.00
2023-04-30T05:50:58.907Z,100.00
2023-04-30T05:53:25.580Z,100.00
2023-04-30T05:55:52.388Z,100.00
2023-04-30T05:58:19.086Z,100.00
2023-04-30T06:00:49.508Z,100.00
2023-04-30T06:03:16.200Z,100.00
2023-04-30T06:05:43.207Z,100.00
2023-04-30T06:08:09.898Z,100.00
2023-04-30T06:10:36.753Z,100.00
2023-04-30T06:13:03.597Z,100.00
2023-04-30T06:15:30.418Z,100.00
2023-04-30T06:17:57.104Z,100.00
2023-04-30T06:20:23.785Z,100.00
2023-04-30T06:22:50.438Z,100.00
2023-04-30T06:25:17.099Z,100.00
2023-04-30T06:27:43.934Z,100.00
2023-04-30T06:30:10.857Z,99.94
2023-04-30T06:32:37.645Z,99.05
2023-04-30T06:35:05.709Z,98.44
2023-04-30T06:37:37.531Z,98.46
2023-04-30T06:40:06.150Z,98.61
2023-04-30T06:42:34.751Z,96.77
2023-04-30T06:45:02.671Z,93.79
2023-04-30T06:47:34.851Z,91.66
2023-04-30T06:50:02.212Z,90.08
2023-04-30T06:52:29.911Z,87.45
2023-04-30T06:54:56.765Z,87.67
2023-04-30T06:57:24.711Z,85.98
2023-04-30T06:59:51.806Z,84.66
2023-04-30T07:02:21.225Z,84.68
2023-04-30T07:04:49.477Z,84.93
2023-04-30T07:07:16.315Z,83.61
2023-04-30T07:09:43.020Z,82.20
2023-04-30T07:12:11.299Z,79.23
2023-04-30T07:14:37.935Z,79.53
2023-04-30T07:17:04.662Z,78.23
2023-04-30T07:19:32.550Z,78.84
2023-04-30T07:21:59.325Z,79.07
2023-04-30T07:24:26.019Z,79.75
2023-04-30T07:26:52.769Z,78.05
2023-04-30T07:29:19.548Z,76.16
2023-04-30T07:31:46.378Z,78.29
2023-04-30T07:34:13.470Z,77.48
2023-04-30T07:36:40.218Z,78.24
2023-04-30T07:39:08.103Z,79.02
2023-04-30T07:41:34.943Z,75.78
2023-04-30T07:44:01.649Z,75.29
2023-04-30T07:46:28.379Z,75.46
2023-04-30T07:48:55.125Z,74.89
2023-04-30T07:51:22.113Z,74.64
2023-04-30T07:53:48.780Z,74.94
2023-04-30T07:56:16.000Z,75.74
2023-04-30T07:58:42.740Z,73.23
2023-04-30T08:01:09.384Z,73.58
2023-04-30T08:03:36.820Z,73.48
2023-04-30T08:06:05.089Z,73.56
2023-04-30T08:08:31.774Z,71.21
2023-04-30T08:10:58.439Z,72.34
2023-04-30T08:13:25.107Z,70.56
2023-04-30T08:15:51.776Z,71.85
2023-04-30T08:18:18.432Z,72.12
2023-04-30T08:20:45.178Z,71.29
2023-04-30T08:23:11.953Z,70.05
2023-04-30T08:25:38.617Z,70.79
2023-04-30T08:28:06.842Z,72.58
2023-04-30T08:30:33.534Z,69.49
2023-04-30T08:33:00.453Z,70.33
2023-04-30T08:35:27.341Z,73.27
2023-04-30T08:37:54.203Z,69.92
2023-04-30T08:40:22.119Z,69.20
2023-04-30T08:43:09.027Z,71.19
2023-04-30T08:45:37.121Z,70.82
2023-04-30T08:48:04.973Z,71.47
2023-04-30T08:50:32.012Z,72.32
2023-04-30T08:52:59.353Z,70.07
2023-04-30T08:55:29.944Z,71.50
2023-04-30T08:57:56.587Z,70.23
2023-04-30T09:00:23.200Z,71.24
2023-04-30T09:02:50.456Z,72.06
2023-04-30T09:05:17.202Z,72.46
2023-04-30T09:10:19.094Z,71.71
2023-04-30T09:13:09.241Z,71.22
2023-04-30T09:15:38.770Z,72.04
2023-04-30T09:18:12.413Z,72.50
2023-04-30T09:20:54.639Z,72.55
2023-04-30T09:23:21.342Z,70.59
2023-04-30T09:25:47.977Z,71.30
2023-04-30T09:28:14.757Z,69.94
2023-04-30T09:30:42.307Z,71.64
2023-04-30T09:33:11.690Z,69.57
2023-04-30T09:35:41.658Z,69.04
2023-04-30T09:38:25.022Z,69.56
2023-04-30T09:40:51.682Z,68.89
2023-04-30T09:43:18.379Z,70.04
2023-04-30T09:45:51.561Z,70.35
2023-04-30T09:48:30.563Z,68.85
2023-04-30T09:50:57.725Z,67.70
2023-04-30T09:53:24.434Z,67.70
2023-04-30T09:55:52.121Z,69.31
2023-04-30T09:58:19.834Z,66.09
2023-04-30T10:00:49.566Z,67.22
2023-04-30T10:03:17.230Z,67.54
2023-04-30T10:05:48.981Z,67.35
2023-04-30T10:08:27.242Z,69.15
2023-04-30T10:11:00.186Z,68.60
2023-04-30T10:13:31.450Z,69.09
2023-04-30T10:16:24.495Z,66.44
2023-04-30T10:18:54.104Z,65.58
2023-04-30T10:21:27.155Z,67.19
2023-04-30T10:23:55.425Z,65.66
2023-04-30T10:26:22.765Z,68.35
2023-04-30T10:28:50.644Z,68.93
2023-04-30T10:31:19.424Z,66.08
2023-04-30T10:33:55.424Z,62.73
2023-04-30T10:36:41.504Z,68.16
2023-04-30T10:39:08.538Z,64.87
2023-04-30T10:41:35.225Z,66.31
2023-04-30T10:44:02.864Z,60.74
2023-04-30T10:46:29.576Z,61.87
2023-04-30T10:48:56.387Z,62.01
2023-04-30T10:51:23.472Z,62.39
2023-04-30T10:53:55.833Z,61.45
2023-04-30T10:56:32.907Z,60.37
2023-04-30T10:59:02.456Z,58.74
2023-04-30T11:01:29.885Z,59.94
2023-04-30T11:04:08.316Z,58.97
2023-04-30T11:06:55.720Z,58.90
2023-04-30T11:09:48.596Z,58.89
2023-04-30T11:12:28.279Z,58.79
2023-04-30T11:15:13.358Z,61.82
2023-04-30T11:17:40.209Z,58.25
2023-04-30T11:20:08.576Z,55.97
2023-04-30T11:22:38.240Z,59.07
2023-04-30T11:25:12.987Z,57.31
2023-04-30T11:27:45.103Z,54.13
2023-04-30T11:30:15.465Z,54.23
2023-04-30T11:32:47.444Z,53.51
2023-04-30T11:35:17.793Z,52.42
2023-04-30T11:37:45.022Z,51.61
2023-04-30T11:40:14.250Z,53.03
2023-04-30T11:42:46.988Z,53.26
2023-04-30T11:45:20.907Z,54.21
2023-04-30T11:47:49.379Z,50.02
2023-04-30T11:50:30.206Z,50.76
2023-04-30T11:52:59.110Z,51.22
2023-04-30T11:55:27.871Z,49.77
2023-04-30T11:57:57.718Z,50.97
2023-04-30T12:00:30.574Z,49.09
2023-04-30T12:03:00.363Z,49.50
2023-04-30T12:05:30.500Z,47.37
2023-04-30T12:08:00.423Z,46.30
2023-04-30T12:10:27.283Z,46.27
2023-04-30T12:12:54.951Z,46.55
2023-04-30T12:15:27.374Z,48.81
2023-04-30T12:17:56.639Z,47.86
2023-04-30T12:20:25.395Z,46.24
2023-04-30T12:22:52.364Z,45.99
2023-04-30T12:25:23.243Z,45.71
2023-04-30T12:27:54.345Z,44.36
2023-04-30T12:30:26.955Z,45.16
2023-04-30T12:32:57.124Z,45.05
2023-04-30T12:35:24.904Z,45.12
2023-04-30T12:37:54.174Z,46.42
2023-04-30T12:40:21.770Z,44.37
2023-04-30T12:42:48.827Z,45.35
2023-04-30T12:45:54.485Z,44.80
2023-04-30T12:48:25.306Z,45.27
2023-04-30T12:51:00.205Z,45.17
2023-04-30T12:53:27.744Z,44.90
2023-04-30T12:56:26.935Z,44.38
2023-04-30T12:58:53.765Z,45.72
2023-04-30T13:01:23.095Z,43.59
2023-04-30T13:03:50.883Z,44.32
2023-04-30T13:06:17.946Z,44.51
2023-04-30T13:08:57.878Z,44.62
2023-04-30T13:11:26.994Z,46.27
2023-04-30T13:13:55.745Z,44.97
2023-04-30T13:16:24.716Z,43.67
2023-04-30T13:18:52.062Z,44.01
2023-04-30T13:21:18.678Z,47.25
2023-04-30T13:23:52.751Z,43.83
2023-04-30T13:26:20.590Z,42.99
2023-04-30T13:28:47.188Z,44.97
2023-04-30T13:31:13.816Z,44.00
2023-04-30T13:33:40.545Z,44.16
2023-04-30T13:36:07.457Z,43.25
2023-04-30T13:38:34.074Z,42.69
2023-04-30T13:41:01.099Z,42.31
2023-04-30T13:43:27.723Z,44.15
2023-04-30T13:45:54.321Z,43.82
2023-04-30T13:48:20.970Z,44.13
2023-04-30T13:50:47.551Z,43.64
2023-04-30T13:53:14.309Z,43.18
2023-04-30T13:55:41.016Z,43.28
2023-04-30T13:58:07.679Z,42.78
2023-04-30T14:00:34.348Z,43.67
2023-04-30T14:03:01.161Z,43.75
2023-04-30T14:05:28.084Z,43.36
2023-04-30T14:07:54.802Z,42.63
2023-04-30T14:10:21.452Z,42.21
2023-04-30T14:12:48.901Z,42.44
2023-04-30T14:15:15.797Z,42.58
2023-04-30T14:17:42.499Z,42.52
2023-04-30T14:20:09.787Z,42.75
2023-04-30T14:22:38.619Z,42.28
2023-04-30T14:25:05.955Z,42.09
2023-04-30T14:27:32.723Z,43.36
2023-04-30T14:29:59.346Z,43.75
2023-04-30T14:32:27.013Z,42.88
2023-04-30T14:34:54.091Z,42.73
2023-04-30T14:37:20.810Z,42.24
2023-04-30T14:39:47.377Z,43.23
2023-04-30T14:44:40.761Z,41.36
2023-04-30T14:47:08.756Z,42.40
2023-04-30T14:49:35.697Z,43.50
2023-04-30T14:52:02.320Z,41.08
2023-04-30T14:54:28.989Z,41.60
2023-04-30T14:56:55.757Z,44.58
2023-04-30T14:59:22.570Z,41.21
2023-04-30T15:01:49.296Z,42.98
2023-04-30T15:04:16.152Z,43.04
2023-04-30T15:06:43.233Z,42.89
2023-04-30T15:09:11.492Z,42.44
2023-04-30T15:11:38.119Z,42.26
2023-04-30T15:14:04.776Z,41.59
2023-04-30T15:16:31.517Z,42.61
2023-04-30T15:18:59.151Z,43.47
2023-04-30T15:21:26.661Z,43.42
2023-04-30T15:23:53.483Z,43.76
2023-04-30T15:26:20.157Z,45.03
2023-04-30T15:28:46.830Z,44.00
2023-04-30T15:31:13.517Z,43.08
2023-04-30T15:33:42.222Z,43.28
2023-04-30T15:38:51.743Z,44.97
2023-04-30T15:41:18.551Z,44.04
2023-04-30T15:43:45.174Z,44.91
2023-04-30T15:46:12.135Z,43.33
2023-04-30T15:48:38.806Z,43.45
2023-04-30T15:51:05.493Z,44.46
2023-04-30T15:53:32.084Z,44.84
2023-04-30T15:55:58.697Z,44.37
2023-04-30T15:58:25.432Z,44.76
2023-04-30T16:00:52.097Z,44.60
2023-04-30T16:03:18.849Z,44.84
2023-04-30T16:05:45.569Z,43.84
2023-04-30T16:08:12.505Z,43.57
2023-04-30T16:10:39.461Z,44.62
2023-04-30T16:13:06.118Z,44.66
2023-04-30T16:15:32.822Z,44.89
2023-04-30T16:17:59.794Z,45.90
2023-04-30T16:20:27.413Z,44.44
2023-04-30T16:22:54.956Z,44.69
2023-04-30T16:25:22.735Z,44.79
2023-04-30T16:27:49.870Z,44.85
2023-04-30T16:30:16.526Z,44.83
2023-04-30T16:32:43.459Z,44.73
2023-04-30T16:35:10.479Z,45.55
2023-04-30T16:37:37.116Z,45.47
2023-04-30T16:40:06.237Z,45.22
2023-04-30T16:42:33.949Z,44.95
2023-04-30T16:45:01.559Z,45.54
2023-04-30T16:47:28.217Z,47.40
2023-04-30T16:49:55.816Z,45.32
2023-04-30T16:52:22.778Z,44.50
2023-04-30T16:54:49.414Z,45.22
2023-04-30T16:57:16.160Z,45.72
2023-04-30T16:59:42.748Z,44.89
2023-04-30T17:02:09.978Z,45.37
2023-04-30T17:04:36.684Z,44.96
2023-04-30T17:07:03.467Z,45.86
2023-04-30T17:09:30.365Z,46.17
2023-04-30T17:11:57.046Z,45.93
2023-04-30T17:14:23.669Z,45.60
2023-04-30T17:16:50.280Z,46.38
2023-04-30T17:19:18.015Z,46.04
2023-04-30T17:21:44.833Z,46.90
2023-04-30T17:24:11.540Z,47.19
2023-04-30T17:26:38.247Z,47.52
2023-04-30T17:29:06.278Z,47.26
2023-04-30T17:31:33.315Z,47.66
2023-04-30T17:34:03.156Z,48.05
2023-04-30T17:36:30.388Z,48.17
2023-04-30T17:38:57.122Z,49.36
2023-04-30T17:41:24.212Z,49.63
2023-04-30T17:43:51.736Z,50.24
2023-04-30T17:46:18.589Z,50.40
2023-04-30T17:48:45.239Z,50.04
2023-04-30T17:51:12.046Z,50.12
2023-04-30T17:53:38.734Z,49.42
2023-04-30T17:56:05.776Z,49.92
2023-04-30T17:58:32.742Z,50.28
2023-04-30T18:01:01.794Z,50.60
2023-04-30T18:03:28.798Z,50.81
2023-04-30T18:05:55.772Z,51.64
2023-04-30T18:08:22.420Z,52.17
2023-04-30T18:10:49.156Z,52.49
2023-04-30T18:13:15.787Z,53.16
2023-04-30T18:15:42.702Z,53.61
2023-04-30T18:18:09.889Z,53.72
2023-04-30T18:20:37.064Z,53.96
2023-04-30T18:23:05.238Z,54.37
2023-04-30T18:25:34.335Z,54.64
2023-04-30T18:28:01.484Z,55.22
2023-04-30T18:30:28.184Z,55.03
2023-04-30T18:32:54.906Z,54.92
2023-04-30T18:35:22.194Z,54.68
2023-04-30T18:37:49.689Z,54.63
2023-04-30T18:40:16.279Z,53.83
2023-04-30T18:42:42.907Z,53.43
2023-04-30T18:45:11.447Z,53.92
2023-04-30T18:47:38.315Z,54.02
2023-04-30T18:50:06.573Z,53.50
2023-04-30T18:52:33.570Z,53.54
2023-04-30T18:55:00.171Z,53.47
2023-04-30T18:57:27.123Z,53.44
2023-04-30T18:59:54.795Z,53.24
2023-04-30T19:02:24.513Z,53.96
2023-04-30T19:04:52.312Z,53.55
2023-04-30T19:07:18.968Z,53.46
2023-04-30T19:09:48.318Z,53.30
2023-04-30T19:12:15.115Z,53.52
2023-04-30T19:14:41.874Z,53.64
2023-04-30T19:17:08.554Z,53.66
2023-04-30T19:19:35.916Z,53.39
2023-04-30T19:22:02.565Z,54.01
2023-04-30T19:24:29.288Z,54.18
2023-04-30T19:26:56.468Z,53.97
2023-04-30T19:29:24.615Z,54.10
2023-04-30T19:31:51.522Z,53.70
2023-04-30T19:34:18.192Z,54.32
2023-04-30T19:36:44.835Z,54.08
2023-04-30T19:39:11.972Z,54.43
2023-04-30T19:41:39.250Z,54.32
2023-04-30T19:44:07.709Z,54.55
2023-04-30T19:46:34.826Z,54.61
2023-04-30T19:49:01.583Z,54.37
2023-04-30T19:51:28.272Z,54.36
2023-04-30T19:53:55.363Z,54.55
2023-04-30T19:56:22.170Z,55.03
2023-04-30T19:58:48.829Z,55.19
2023-04-30T20:01:15.665Z,55.20
2023-04-30T20:03:42.724Z,55.21
2023-04-30T20:06:10.170Z,55.68
2023-04-30T20:08:37.467Z,55.61
2023-04-30T20:11:04.224Z,55.84
2023-04-30T20:13:31.124Z,56.54
2023-04-30T20:15:57.808Z,56.80
2023-04-30T20:18:24.423Z,56.81
2023-04-30T20:20:52.332Z,57.33
2023-04-30T20:23:20.356Z,57.21
2023-04-30T20:25:47.046Z,57.18
2023-04-30T20:28:15.263Z,57.00
2023-04-30T20:30:43.099Z,57.23
2023-04-30T20:33:14.632Z,57.45
2023-04-30T20:35:44.014Z,57.71
2023-04-30T20:38:12.243Z,57.31
2023-04-30T20:40:41.695Z,57.54
2023-04-30T20:43:10.275Z,57.68
2023-04-30T20:45:37.690Z,57.69
2023-04-30T20:48:05.111Z,57.55
2023-04-30T20:50:31.913Z,57.61
2023-04-30T20:52:58.514Z,57.56
2023-04-30T20:55:25.160Z,57.95
2023-04-30T20:57:51.744Z,58.30
2023-04-30T21:00:18.711Z,57.99
2023-04-30T21:02:45.747Z,58.46
2023-04-30T21:05:12.548Z,58.39
2023-04-30T21:07:39.233Z,58.70
2023-04-30T21:10:08.071Z,59.22
2023-04-30T21:12:35.231Z,58.86
2023-04-30T21:15:02.009Z,58.88
2023-04-30T21:17:28.646Z,59.03
2023-04-30T21:19:56.808Z,59.24
2023-04-30T21:22:24.057Z,59.48
2023-04-30T21:24:53.506Z,59.27
2023-04-30T21:27:20.535Z,59.55
2023-04-30T21:29:47.864Z,59.82
2023-04-30T21:32:14.434Z,60.35
2023-04-30T21:34:41.043Z,60.57
2023-04-30T21:37:07.675Z,60.99
2023-04-30T21:39:34.328Z,61.01
2023-04-30T21:42:00.998Z,61.47
2023-04-30T21:44:32.402Z,61.48
2023-04-30T21:46:59.578Z,61.64
2023-04-30T21:49:26.398Z,61.68
2023-04-30T21:51:53.149Z,61.85
2023-04-30T21:54:19.876Z,61.27
2023-04-30T21:56:46.785Z,61.34
2023-04-30T21:59:13.380Z,61.75
2023-04-30T22:01:40.213Z,61.87
2023-04-30T22:04:07.030Z,62.23
2023-04-30T22:06:34.770Z,61.55
2023-04-30T22:09:01.484Z,61.94
2023-04-30T22:11:28.146Z,61.75
2023-04-30T22:13:54.705Z,61.60
2023-04-30T22:16:21.464Z,61.89
2023-04-30T22:18:48.115Z,61.99
2023-04-30T22:21:14.757Z,62.38
2023-04-30T22:23:41.424Z,62.99
2023-04-30T22:26:09.973Z,62.75
2023-04-30T22:28:37.946Z,63.37
2023-04-30T22:31:04.827Z,64.46
2023-04-30T22:33:38.269Z,63.75
2023-04-30T22:36:08.276Z,64.07
2023-04-30T22:38:35.421Z,64.48
2023-04-30T22:41:03.784Z,64.74
2023-04-30T22:43:31.098Z,64.55
2023-04-30T22:45:58.832Z,64.55
2023-04-30T22:48:27.707Z,64.91
2023-04-30T22:50:55.601Z,64.90
2023-04-30T22:53:22.552Z,66.01
2023-04-30T22:55:49.737Z,66.07
2023-04-30T22:58:17.093Z,65.36
2023-04-30T23:00:43.748Z,66.02
2023-04-30T23:03:10.346Z,67.34
2023-04-30T23:05:36.985Z,67.46
2023-04-30T23:08:04.521Z,67.47
2023-04-30T23:10:31.283Z,67.32
2023-04-30T23:12:58.873Z,67.16
2023-04-30T23:15:26.288Z,67.62
2023-04-30T23:17:54.476Z,67.46
2023-04-30T23:20:22.716Z,67.78
2023-04-30T23:22:49.765Z,67.94
2023-04-30T23:25:16.968Z,68.26
2023-04-30T23:27:45.168Z,67.96
2023-04-30T23:30:12.076Z,68.74
2023-04-30T23:32:42.039Z,68.38
2023-04-30T23:35:09.411Z,68.22
2023-04-30T23:37:36.154Z,68.80
2023-04-30T23:40:07.228Z,68.67
2023-04-30T23:42:34.370Z,68.35
2023-04-30T23:45:01.340Z,68.28
2023-04-30T23:47:28.621Z,68.89
2023-04-30T23:49:55.594Z,69.07
2023-04-30T23:52:22.374Z,68.84
2023-04-30T23:54:49.201Z,69.03
2023-04-30T23:57:15.907Z,68.64
2023-04-30T23:59:42.655Z,69.77
